createdAt,value
2023-02-22T00:01:28.409Z,13.50
2023-02-22T00:03:58.543Z,13.50
2023-02-22T00:06:26.542Z,13.49
2023-02-22T00:08:55.769Z,13.47
2023-02-22T00:11:24.182Z,13.48
2023-02-22T00:13:52.288Z,13.49
2023-02-22T00:16:22.657Z,13.49
2023-02-22T00:18:51.105Z,13.50
2023-02-22T00:21:21.231Z,13.53
2023-02-22T00:23:50.554Z,13.53
2023-02-22T00:26:24.267Z,13.55
2023-02-22T00:28:54.739Z,13.56
2023-02-22T00:31:23.723Z,13.59
2023-02-22T00:33:51.883Z,13.61
2023-02-22T00:36:21.688Z,13.64
2023-02-22T00:38:50.005Z,13.66
2023-02-22T00:41:18.642Z,13.69
2023-02-22T00:43:46.841Z,13.73
2023-02-22T00:46:15.358Z,13.73
2023-02-22T00:48:43.624Z,13.74
2023-02-22T00:51:12.232Z,13.75
2023-02-22T00:53:41.968Z,13.75
2023-02-22T00:56:10.432Z,13.75
2023-02-22T00:58:38.566Z,13.72
2023-02-22T01:01:07.026Z,13.65
2023-02-22T01:03:35.495Z,13.62
2023-02-22T01:06:03.645Z,13.59
2023-02-22T01:08:32.715Z,13.60
2023-02-22T01:11:02.146Z,13.61
2023-02-22T01:13:30.220Z,13.61
2023-02-22T01:15:58.308Z,13.60
2023-02-22T01:18:27.080Z,13.60
2023-02-22T01:20:55.271Z,13.59
2023-02-22T01:23:23.290Z,13.56
2023-02-22T01:25:51.339Z,13.54
2023-02-22T01:28:22.575Z,13.52
2023-02-22T01:30:50.830Z,13.53
2023-02-22T01:33:18.924Z,13.54
2023-02-22T01:35:47.515Z,13.51
2023-02-22T01:38:15.570Z,13.51
2023-02-22T01:40:45.824Z,13.51
2023-02-22T01:43:23.354Z,13.53
2023-02-22T01:45:57.425Z,13.52
2023-02-22T01:48:32.030Z,13.52
2023-02-22T01:51:03.792Z,13.53
2023-02-22T01:53:36.582Z,13.56
2023-02-22T01:56:05.877Z,13.56
2023-02-22T01:58:39.420Z,13.57
2023-02-22T02:01:08.935Z,13.60
2023-02-22T02:03:39.906Z,13.62
2023-02-22T02:06:12.358Z,13.60
2023-02-22T02:08:49.978Z,13.59
2023-02-22T02:11:21.285Z,13.60
2023-02-22T02:13:55.200Z,13.59
2023-02-22T02:16:24.948Z,13.56
2023-02-22T02:18:53.649Z,13.57
2023-02-22T02:21:44.853Z,13.56
2023-02-22T02:24:36.051Z,13.54
2023-02-22T02:27:12.733Z,13.55
2023-02-22T02:30:27.570Z,13.58
2023-02-22T02:33:00.118Z,13.60
2023-02-22T02:35:39.501Z,13.60
2023-02-22T02:38:13.830Z,13.59
2023-02-22T02:40:49.555Z,13.60
2023-02-22T02:43:26.487Z,13.58
2023-02-22T02:46:00.264Z,13.60
2023-02-22T02:48:32.624Z,13.57
2023-02-22T02:51:02.772Z,13.60
2023-02-22T02:53:36.269Z,13.60
2023-02-22T02:56:05.068Z,13.58
2023-02-22T02:58:33.426Z,13.59
2023-02-22T03:01:04.468Z,13.58
2023-02-22T03:03:53.655Z,13.56
2023-02-22T03:06:49.092Z,13.55
2023-02-22T03:09:28.286Z,13.55
2023-02-22T03:12:09.347Z,13.55
2023-02-22T03:14:43.355Z,13.56
2023-02-22T03:17:19.280Z,13.57
2023-02-22T03:19:53.233Z,13.57
2023-02-22T03:22:27.939Z,13.60
2023-02-22T03:25:08.993Z,13.61
2023-02-22T03:27:43.802Z,13.62
2023-02-22T03:30:17.627Z,13.59
2023-02-22T03:32:58.981Z,13.61
2023-02-22T03:35:34.396Z,13.60
2023-02-22T03:38:07.473Z,13.61
2023-02-22T03:40:39.759Z,13.59
2023-02-22T03:43:11.004Z,13.60
2023-02-22T03:45:43.589Z,13.58
2023-02-22T03:48:21.085Z,13.61
2023-02-22T03:50:52.717Z,13.62
2023-02-22T03:53:23.343Z,13.66
2023-02-22T03:55:54.294Z,13.70
2023-02-22T03:58:25.214Z,13.70
2023-02-22T04:00:54.392Z,13.74
2023-02-22T04:03:23.829Z,13.76
2023-02-22T04:05:53.596Z,13.79
2023-02-22T04:08:21.975Z,13.82
2023-02-22T04:10:50.353Z,13.82
2023-02-22T04:13:18.690Z,13.85
2023-02-22T04:15:47.002Z,13.83
2023-02-22T04:18:17.480Z,13.78
2023-02-22T04:20:46.537Z,13.65
2023-02-22T04:23:17.825Z,13.56
2023-02-22T04:25:46.184Z,13.52
2023-02-22T04:28:14.654Z,13.51
2023-02-22T04:30:44.150Z,13.51
2023-02-22T04:33:12.844Z,13.60
2023-02-22T04:35:42.309Z,13.67
2023-02-22T04:38:11.593Z,13.71
2023-02-22T04:40:41.154Z,13.71
2023-02-22T04:43:09.427Z,13.72
2023-02-22T04:45:37.423Z,13.70
2023-02-22T04:48:05.785Z,13.65
2023-02-22T04:50:33.752Z,13.62
2023-02-22T04:53:01.858Z,13.60
2023-02-22T04:55:30.021Z,13.56
2023-02-22T04:57:59.415Z,13.53
2023-02-22T05:00:27.660Z,13.54
2023-02-22T05:02:55.730Z,13.53
2023-02-22T05:05:24.030Z,13.54
2023-02-22T05:07:52.688Z,13.54
2023-02-22T05:10:20.957Z,13.52
2023-02-22T05:12:49.071Z,13.52
2023-02-22T05:15:21.460Z,13.55
2023-02-22T05:17:50.112Z,13.48
2023-02-22T05:20:25.650Z,13.48
2023-02-22T05:22:54.084Z,13.46
2023-02-22T05:25:22.084Z,13.43
2023-02-22T05:27:59.432Z,13.38
2023-02-22T05:30:32.029Z,13.35
2023-02-22T05:33:03.377Z,13.31
2023-02-22T05:35:31.759Z,13.26
2023-02-22T05:38:03.272Z,13.21
2023-02-22T05:40:42.077Z,13.14
2023-02-22T05:43:10.699Z,13.09
2023-02-22T05:45:40.323Z,13.11
2023-02-22T05:48:08.659Z,13.00
2023-02-22T05:50:36.766Z,12.97
2023-02-22T05:53:05.708Z,12.97
2023-02-22T05:55:33.793Z,12.96
2023-02-22T05:58:02.309Z,12.94
2023-02-22T06:00:31.908Z,12.87
2023-02-22T06:03:13.056Z,12.87
2023-02-22T06:05:41.401Z,12.84
2023-02-22T06:08:10.510Z,12.83
2023-02-22T06:10:38.666Z,12.83
2023-02-22T06:13:07.874Z,12.80
2023-02-22T06:15:37.238Z,12.85
2023-02-22T06:18:20.437Z,12.86
2023-02-22T06:20:48.990Z,12.82
2023-02-22T06:23:17.302Z,12.80
2023-02-22T06:25:46.645Z,12.76
2023-02-22T06:28:14.959Z,12.80
2023-02-22T06:30:53.454Z,12.82
2023-02-22T06:33:25.590Z,12.79
2023-02-22T06:35:54.686Z,12.74
2023-02-22T06:38:27.965Z,12.70
2023-02-22T06:40:57.063Z,12.73
2023-02-22T06:43:25.841Z,12.71
2023-02-22T06:45:55.476Z,12.64
2023-02-22T06:48:25.732Z,12.62
2023-02-22T06:50:54.081Z,12.58
2023-02-22T06:53:22.783Z,12.58
2023-02-22T06:55:51.002Z,12.55
2023-02-22T06:58:19.060Z,12.53
2023-02-22T07:00:47.142Z,12.47
2023-02-22T07:03:17.560Z,12.39
2023-02-22T07:05:47.346Z,12.31
2023-02-22T07:08:15.649Z,12.23
2023-02-22T07:10:43.655Z,12.16
2023-02-22T07:13:11.667Z,12.07
2023-02-22T07:15:39.653Z,11.94
2023-02-22T07:18:08.180Z,11.90
2023-02-22T07:20:41.111Z,11.88
2023-02-22T07:23:16.743Z,11.83
2023-02-22T07:25:45.081Z,11.76
2023-02-22T07:28:13.315Z,11.76
2023-02-22T07:30:41.421Z,11.77
2023-02-22T07:33:13.888Z,11.74
2023-02-22T07:35:46.741Z,11.75
2023-02-22T07:38:18.487Z,11.78
2023-02-22T07:40:50.223Z,11.76
2023-02-22T07:43:20.812Z,11.81
2023-02-22T07:45:50.780Z,11.82
2023-02-22T07:48:20.342Z,11.87
2023-02-22T07:50:48.903Z,11.88
2023-02-22T07:53:21.196Z,11.94
2023-02-22T07:55:51.163Z,11.93
2023-02-22T07:58:21.622Z,11.93
2023-02-22T08:00:49.697Z,11.97
2023-02-22T08:03:20.289Z,11.98
2023-02-22T08:05:50.604Z,12.02
2023-02-22T08:08:20.879Z,12.03
2023-02-22T08:10:49.547Z,12.00
2023-02-22T08:13:18.262Z,12.01
2023-02-22T08:15:47.259Z,12.02
2023-02-22T08:18:19.222Z,12.00
2023-02-22T08:20:49.373Z,12.04
2023-02-22T08:23:22.645Z,12.07
2023-02-22T08:25:50.755Z,12.07
2023-02-22T08:28:22.654Z,12.15
2023-02-22T08:30:51.632Z,12.15
2023-02-22T08:33:22.206Z,12.16
2023-02-22T08:35:51.959Z,12.18
2023-02-22T08:38:25.093Z,12.26
2023-02-22T08:40:53.330Z,12.32
2023-02-22T08:43:23.987Z,12.34
2023-02-22T08:45:56.146Z,12.44
2023-02-22T08:48:25.818Z,12.37
2023-02-22T08:50:54.125Z,12.46
2023-02-22T08:53:23.723Z,12.47
2023-02-22T08:55:51.800Z,12.51
2023-02-22T08:58:19.995Z,12.51
2023-02-22T09:00:48.060Z,12.52
2023-02-22T09:03:16.889Z,12.55
2023-02-22T09:05:45.772Z,12.58
2023-02-22T09:08:14.672Z,12.60
2023-02-22T09:10:45.431Z,12.66
2023-02-22T09:13:14.043Z,12.63
2023-02-22T09:15:42.562Z,12.62
2023-02-22T09:18:14.858Z,12.61
2023-02-22T09:20:44.442Z,12.63
2023-02-22T09:23:14.557Z,12.56
2023-02-22T09:25:46.562Z,12.51
2023-02-22T09:28:15.350Z,12.49
2023-02-22T09:30:43.956Z,12.48
2023-02-22T09:33:18.203Z,12.52
2023-02-22T09:35:48.051Z,12.54
2023-02-22T09:38:18.023Z,12.51
2023-02-22T09:40:51.982Z,12.51
2023-02-22T09:43:32.432Z,12.48
2023-02-22T09:46:13.963Z,12.45
2023-02-22T09:48:57.982Z,12.44
2023-02-22T09:51:30.070Z,12.41
2023-02-22T09:54:02.625Z,12.42
2023-02-22T09:56:35.103Z,12.45
2023-02-22T09:59:07.199Z,12.40
2023-02-22T10:01:42.728Z,12.45
2023-02-22T10:04:19.861Z,12.47
2023-02-22T10:07:08.128Z,12.61
2023-02-22T10:09:42.787Z,12.78
2023-02-22T10:12:20.954Z,12.94
2023-02-22T10:15:21.893Z,13.01
2023-02-22T10:18:00.814Z,13.10
2023-02-22T10:20:43.922Z,13.18
2023-02-22T10:23:23.709Z,13.21
2023-02-22T10:25:57.441Z,13.21
2023-02-22T10:28:31.682Z,13.28
2023-02-22T10:31:06.331Z,13.22
2023-02-22T10:33:39.687Z,13.20
2023-02-22T10:36:17.426Z,13.09
2023-02-22T10:38:53.006Z,13.05
2023-02-22T10:41:27.631Z,13.00
2023-02-22T10:43:57.384Z,13.00
2023-02-22T10:46:28.587Z,12.97
2023-02-22T10:49:03.694Z,13.00
2023-02-22T10:51:32.896Z,12.94
2023-02-22T10:54:21.139Z,12.98
2023-02-22T10:56:51.283Z,13.05
2023-02-22T10:59:34.186Z,13.08
2023-02-22T11:02:11.000Z,12.98
2023-02-22T11:04:50.870Z,12.96
2023-02-22T11:07:23.391Z,12.93
2023-02-22T11:09:54.717Z,12.88
2023-02-22T11:12:29.340Z,12.91
2023-02-22T11:14:59.280Z,12.90
2023-02-22T11:17:32.713Z,12.94
2023-02-22T11:20:01.669Z,13.05
2023-02-22T11:22:33.409Z,13.08
2023-02-22T11:25:04.353Z,13.12
2023-02-22T11:27:40.579Z,13.17
2023-02-22T11:30:35.509Z,13.27
2023-02-22T11:33:23.362Z,13.30
2023-02-22T11:35:54.238Z,13.20
2023-02-22T11:38:24.849Z,13.20
2023-02-22T11:41:09.289Z,13.28
2023-02-22T11:43:37.709Z,13.31
2023-02-22T11:46:11.036Z,13.41
2023-02-22T11:48:44.750Z,13.42
2023-02-22T11:51:40.188Z,13.39
2023-02-22T11:54:29.030Z,13.29
2023-02-22T11:57:07.357Z,13.22
2023-02-22T11:59:43.054Z,13.15
2023-02-22T12:02:32.435Z,13.22
2023-02-22T12:05:22.318Z,13.24
2023-02-22T12:08:18.913Z,13.24
2023-02-22T12:10:59.009Z,13.31
2023-02-22T12:13:41.576Z,13.34
2023-02-22T12:16:20.716Z,13.33
2023-02-22T12:19:14.554Z,13.30
2023-02-22T12:21:48.609Z,13.31
2023-02-22T12:24:21.506Z,13.37
2023-02-22T12:26:55.145Z,13.36
2023-02-22T12:29:29.581Z,13.40
2023-02-22T12:32:03.271Z,13.25
2023-02-22T12:34:41.532Z,13.33
2023-02-22T12:37:19.151Z,13.38
2023-02-22T12:40:02.219Z,13.45
2023-02-22T12:42:48.522Z,13.52
2023-02-22T12:45:36.420Z,13.62
2023-02-22T12:48:26.705Z,13.65
2023-02-22T12:51:00.961Z,13.73
2023-02-22T12:53:40.602Z,13.75
2023-02-22T12:56:27.890Z,13.74
2023-02-22T12:59:02.990Z,13.73
2023-02-22T13:01:36.408Z,13.71
2023-02-22T13:04:19.412Z,13.69
2023-02-22T13:07:06.899Z,13.60
2023-02-22T13:10:02.140Z,13.52
2023-02-22T13:12:40.192Z,13.50
2023-02-22T13:15:20.650Z,13.43
2023-02-22T13:18:01.950Z,13.36
2023-02-22T13:20:35.673Z,13.23
2023-02-22T13:23:13.071Z,13.17
2023-02-22T13:25:48.292Z,13.13
2023-02-22T13:28:23.655Z,13.10
2023-02-22T13:31:07.036Z,13.10
2023-02-22T13:33:51.637Z,13.00
2023-02-22T13:36:30.799Z,12.99
2023-02-22T13:39:20.551Z,12.91
2023-02-22T13:42:10.544Z,12.83
2023-02-22T13:45:05.156Z,12.84
2023-02-22T13:47:46.051Z,12.91
2023-02-22T13:50:52.072Z,13.04
2023-02-22T13:53:25.269Z,13.13
2023-02-22T13:56:00.776Z,13.20
2023-02-22T13:58:29.481Z,13.31
2023-02-22T14:01:00.160Z,13.34
2023-02-22T14:03:41.327Z,13.42
2023-02-22T14:06:13.176Z,13.45
2023-02-22T14:08:48.608Z,13.53
2023-02-22T14:11:45.997Z,13.54
2023-02-22T14:14:19.332Z,13.61
2023-02-22T14:17:23.142Z,13.62
2023-02-22T14:20:30.461Z,13.67
2023-02-22T14:23:19.564Z,13.74
2023-02-22T14:25:49.143Z,13.75
2023-02-22T14:28:50.831Z,13.72
2023-02-22T14:31:34.876Z,13.72
2023-02-22T14:34:11.500Z,13.73
2023-02-22T14:36:51.731Z,13.77
2023-02-22T14:39:24.979Z,13.83
2023-02-22T14:42:01.609Z,13.93
2023-02-22T14:44:35.990Z,13.98
2023-02-22T14:47:08.610Z,14.01
2023-02-22T14:49:44.250Z,13.91
2023-02-22T14:52:23.185Z,13.94
2023-02-22T14:54:59.870Z,13.99
2023-02-22T14:57:39.093Z,13.99
2023-02-22T15:00:22.848Z,13.88
2023-02-22T15:02:57.500Z,13.77
2023-02-22T15:05:31.276Z,13.69
2023-02-22T15:08:00.881Z,13.49
2023-02-22T15:10:31.878Z,13.35
2023-02-22T15:13:21.247Z,13.20
2023-02-22T15:15:50.737Z,13.15
2023-02-22T15:18:32.857Z,13.20
2023-02-22T15:21:07.259Z,13.30
2023-02-22T15:23:44.024Z,13.49
2023-02-22T15:26:26.793Z,13.76
2023-02-22T15:28:57.124Z,13.90
2023-02-22T15:31:31.738Z,13.88
2023-02-22T15:34:11.927Z,13.88
2023-02-22T15:36:42.594Z,13.77
2023-02-22T15:39:20.694Z,13.77
2023-02-22T15:41:48.780Z,13.61
2023-02-22T15:44:23.612Z,13.55
2023-02-22T15:46:54.566Z,13.49
2023-02-22T15:49:25.105Z,13.40
2023-02-22T15:52:05.692Z,13.34
2023-02-22T15:54:41.667Z,13.29
2023-02-22T15:57:10.446Z,13.25
2023-02-22T15:59:44.940Z,13.23
2023-02-22T16:02:31.546Z,13.19
2023-02-22T16:05:03.138Z,13.14
2023-02-22T16:07:33.372Z,13.02
2023-02-22T16:10:09.194Z,12.86
2023-02-22T16:12:37.698Z,12.72
2023-02-22T16:15:16.715Z,12.66
2023-02-22T16:18:00.999Z,12.56
2023-02-22T16:20:35.571Z,12.50
2023-02-22T16:23:24.956Z,12.47
2023-02-22T16:26:14.194Z,12.45
2023-02-22T16:28:52.027Z,12.39
2023-02-22T16:31:25.818Z,12.38
2023-02-22T16:33:55.138Z,12.36
2023-02-22T16:36:26.553Z,12.28
2023-02-22T16:38:56.333Z,12.22
2023-02-22T16:41:24.713Z,12.18
2023-02-22T16:43:52.812Z,12.13
2023-02-22T16:46:21.270Z,12.04
2023-02-22T16:48:49.559Z,11.94
2023-02-22T16:51:24.315Z,11.88
2023-02-22T16:53:56.249Z,11.84
2023-02-22T16:56:31.115Z,11.81
2023-02-22T16:59:06.226Z,11.79
2023-02-22T17:01:35.476Z,11.76
2023-02-22T17:04:04.734Z,11.74
2023-02-22T17:06:32.712Z,11.72
2023-02-22T17:09:02.093Z,11.71
2023-02-22T17:11:30.568Z,11.64
2023-02-22T17:14:00.113Z,11.61
2023-02-22T17:16:29.245Z,11.55
2023-02-22T17:18:57.733Z,11.46
2023-02-22T17:21:26.240Z,11.41
2023-02-22T17:23:54.328Z,11.35
2023-02-22T17:26:26.276Z,11.29
2023-02-22T17:28:54.292Z,11.24
2023-02-22T17:31:28.125Z,11.24
2023-02-22T17:33:59.296Z,11.18
2023-02-22T17:36:27.411Z,11.19
2023-02-22T17:38:55.808Z,11.19
2023-02-22T17:41:25.461Z,11.13
2023-02-22T17:43:54.572Z,11.13
2023-02-22T17:46:22.670Z,11.09
2023-02-22T17:48:51.892Z,11.03
2023-02-22T17:51:19.883Z,10.98
2023-02-22T17:53:48.122Z,10.95
2023-02-22T17:56:19.493Z,10.90
2023-02-22T17:58:53.307Z,10.85
2023-02-22T18:01:27.238Z,10.79
2023-02-22T18:03:57.367Z,10.75
2023-02-22T18:06:28.822Z,10.69
2023-02-22T18:08:58.574Z,10.64
2023-02-22T18:11:27.755Z,10.62
2023-02-22T18:13:58.783Z,10.61
2023-02-22T18:16:27.828Z,10.57
2023-02-22T18:19:01.782Z,10.53
2023-02-22T18:21:29.784Z,10.50
2023-02-22T18:23:58.713Z,10.50
2023-02-22T18:26:28.668Z,10.51
2023-02-22T18:28:59.971Z,10.53
2023-02-22T18:31:28.175Z,10.58
2023-02-22T18:33:58.482Z,10.63
2023-02-22T18:36:27.342Z,10.69
2023-02-22T18:38:58.279Z,10.74
2023-02-22T18:44:43.436Z,10.77
2023-02-22T18:47:12.995Z,10.82
2023-02-22T18:49:43.061Z,10.84
2023-02-22T18:52:12.209Z,10.84
2023-02-22T18:54:40.508Z,10.87
2023-02-22T18:57:08.972Z,10.89
2023-02-22T18:59:38.128Z,10.90
2023-02-22T19:02:06.393Z,10.93
2023-02-22T19:04:36.128Z,10.93
2023-02-22T19:07:04.123Z,10.94
2023-02-22T19:09:32.391Z,10.94
2023-02-22T19:12:00.476Z,10.93
2023-02-22T19:14:36.872Z,10.97
2023-02-22T19:17:07.533Z,10.97
2023-02-22T19:19:37.096Z,10.97
2023-02-22T19:22:05.506Z,10.90
2023-02-22T19:24:33.695Z,10.88
2023-02-22T19:27:01.890Z,10.80
2023-02-22T19:29:31.224Z,10.69
2023-02-22T19:31:59.610Z,10.65
2023-02-22T19:34:28.068Z,10.54
2023-02-22T19:37:00.719Z,10.46
2023-02-22T19:39:33.128Z,10.44
2023-02-22T19:42:02.069Z,10.40
2023-02-22T19:44:36.423Z,10.33
2023-02-22T19:47:09.211Z,10.30
2023-02-22T19:49:41.540Z,10.27
2023-02-22T19:52:12.115Z,10.21
2023-02-22T19:54:40.934Z,10.20
2023-02-22T19:57:09.492Z,10.17
2023-02-22T19:59:38.094Z,10.17
2023-02-22T20:02:07.773Z,10.13
2023-02-22T20:04:37.545Z,10.07
2023-02-22T20:07:06.241Z,10.04
2023-02-22T20:09:37.378Z,9.98
2023-02-22T20:12:08.766Z,9.98
2023-02-22T20:14:37.356Z,9.98
2023-02-22T20:17:07.153Z,9.99
2023-02-22T20:19:45.877Z,10.04
2023-02-22T20:22:14.043Z,10.01
2023-02-22T20:24:43.535Z,10.03
2023-02-22T20:27:13.084Z,10.05
2023-02-22T20:29:41.236Z,10.09
2023-02-22T20:32:15.100Z,10.12
2023-02-22T20:34:47.197Z,10.10
2023-02-22T20:37:16.005Z,10.16
2023-02-22T20:39:46.762Z,10.15
2023-02-22T20:42:15.593Z,10.18
2023-02-22T20:44:45.289Z,10.22
2023-02-22T20:47:13.312Z,10.25
2023-02-22T20:49:41.387Z,10.27
2023-02-22T20:52:09.335Z,10.30
2023-02-22T20:54:38.450Z,10.39
2023-02-22T20:57:08.136Z,10.43
2023-02-22T20:59:36.649Z,10.47
2023-02-22T21:02:05.173Z,10.48
2023-02-22T21:04:35.904Z,10.52
2023-02-22T21:07:04.376Z,10.52
2023-02-22T21:09:33.824Z,10.54
2023-02-22T21:12:02.013Z,10.56
2023-02-22T21:14:38.920Z,10.57
2023-02-22T21:17:11.195Z,10.62
2023-02-22T21:19:39.446Z,10.67
2023-02-22T21:22:12.351Z,10.70
2023-02-22T21:24:40.888Z,10.73
2023-02-22T21:27:08.876Z,10.75
2023-02-22T21:29:38.730Z,10.79
2023-02-22T21:32:08.748Z,10.82
2023-02-22T21:34:37.334Z,10.84
2023-02-22T21:37:08.390Z,10.84
2023-02-22T21:39:36.596Z,10.83
2023-02-22T21:42:07.445Z,10.86
2023-02-22T21:44:38.487Z,10.81
2023-02-22T21:47:06.628Z,10.80
2023-02-22T21:49:35.147Z,10.78
2023-02-22T21:52:07.765Z,10.75
2023-02-22T21:54:35.822Z,10.76
2023-02-22T21:57:06.304Z,10.79
2023-02-22T21:59:35.122Z,10.79
2023-02-22T22:02:05.726Z,10.80
2023-02-22T22:04:35.397Z,10.84
2023-02-22T22:07:04.572Z,10.85
2023-02-22T22:09:37.165Z,10.87
2023-02-22T22:12:06.178Z,10.88
2023-02-22T22:14:36.322Z,10.90
2023-02-22T22:17:09.405Z,10.89
2023-02-22T22:19:40.724Z,10.92
2023-02-22T22:22:09.271Z,10.93
2023-02-22T22:24:46.016Z,10.95
2023-02-22T22:27:17.476Z,10.97
2023-02-22T22:29:45.557Z,10.95
2023-02-22T22:32:16.278Z,10.95
2023-02-22T22:34:44.542Z,10.96
2023-02-22T22:37:13.376Z,10.97
2023-02-22T22:39:41.456Z,10.95
2023-02-22T22:42:10.619Z,10.94
2023-02-22T22:44:42.243Z,10.92
2023-02-22T22:47:12.399Z,10.93
2023-02-22T22:49:42.803Z,10.92
2023-02-22T22:52:12.116Z,10.88
2023-02-22T22:54:40.351Z,10.85
2023-02-22T22:57:08.727Z,10.81
2023-02-22T22:59:37.454Z,10.78
2023-02-22T23:02:10.655Z,10.79
2023-02-22T23:04:39.082Z,10.80
2023-02-22T23:07:08.825Z,10.85
2023-02-22T23:09:40.089Z,10.90
2023-02-22T23:12:09.916Z,10.91
2023-02-22T23:14:44.409Z,10.92
2023-02-22T23:17:16.326Z,10.95
2023-02-22T23:19:47.558Z,10.98
2023-02-22T23:22:17.000Z,10.98
2023-02-22T23:24:45.685Z,10.98
2023-02-22T23:27:15.913Z,10.99
2023-02-22T23:29:47.092Z,10.99
2023-02-22T23:32:18.943Z,10.99
2023-02-22T23:34:49.742Z,11.00
2023-02-22T23:37:20.950Z,11.01
2023-02-22T23:39:51.245Z,11.02
2023-02-22T23:42:19.677Z,11.03
2023-02-22T23:44:49.385Z,11.05
2023-02-22T23:47:19.107Z,11.04
2023-02-22T23:49:49.656Z,11.03
2023-02-22T23:52:24.630Z,11.01
2023-02-22T23:54:54.819Z,11.03
2023-02-22T23:57:24.459Z,11.03
2023-02-22T23:59:57.224Z,11.00
